createdAt,value
2023-04-04T00:01:44.953Z,64.68
2023-04-04T00:06:48.246Z,65.58
2023-04-04T00:11:51.222Z,66.29
2023-04-04T00:16:54.552Z,65.72
2023-04-04T00:22:00.221Z,66.17
2023-04-04T00:27:03.640Z,66.42
2023-04-04T00:32:06.633Z,66.84
2023-04-04T00:37:12.350Z,67.45
2023-04-04T00:42:15.304Z,67.87
2023-04-04T00:47:18.225Z,68.85
2023-04-04T00:52:21.226Z,69.30
2023-04-04T00:57:24.611Z,69.30
2023-04-04T01:02:28.407Z,70.16
2023-04-04T01:07:32.600Z,70.99
2023-04-04T01:12:35.921Z,71.73
2023-04-04T01:17:38.967Z,72.23
2023-04-04T01:22:42.513Z,72.74
2023-04-04T01:27:45.727Z,73.25
2023-04-04T01:32:57.478Z,73.54
2023-04-04T01:38:54.666Z,73.95
2023-04-04T01:43:57.760Z,74.54
2023-04-04T01:49:00.682Z,74.67
2023-04-04T01:54:03.633Z,74.78
2023-04-04T01:59:07.334Z,74.96
2023-04-04T02:04:12.573Z,75.14
2023-04-04T02:09:15.704Z,75.62
2023-04-04T02:14:19.678Z,75.95
2023-04-04T02:19:22.689Z,76.79
2023-04-04T02:24:25.555Z,76.81
2023-04-04T02:29:28.805Z,76.54
2023-04-04T02:34:31.665Z,76.64
2023-04-04T02:39:34.506Z,76.67
2023-04-04T02:44:37.469Z,77.34
2023-04-04T02:49:40.310Z,77.53
2023-04-04T02:54:43.573Z,77.57
2023-04-04T02:59:46.483Z,77.66
2023-04-04T03:04:49.258Z,78.38
2023-04-04T03:09:52.150Z,78.46
2023-04-04T03:14:54.963Z,78.24
2023-04-04T03:19:57.874Z,79.02
2023-04-04T03:25:00.685Z,78.98
2023-04-04T03:30:40.206Z,79.45
2023-04-04T03:35:43.489Z,79.73
2023-04-04T03:40:46.813Z,78.93
2023-04-04T03:45:49.878Z,79.74
2023-04-04T03:50:52.935Z,79.55
2023-04-04T03:55:56.686Z,79.84
2023-04-04T04:00:59.676Z,79.15
2023-04-04T04:06:02.549Z,79.63
2023-04-04T04:11:09.187Z,79.42
2023-04-04T04:16:12.056Z,79.66
2023-04-04T04:21:14.894Z,79.62
2023-04-04T04:26:17.920Z,80.01
2023-04-04T04:31:21.067Z,80.60
2023-04-04T04:36:23.965Z,80.18
2023-04-04T04:41:28.027Z,80.11
2023-04-04T04:46:31.884Z,79.93
2023-04-04T04:51:34.828Z,80.14
2023-04-04T04:56:38.188Z,80.44
2023-04-04T05:01:41.144Z,80.02
2023-04-04T05:06:44.004Z,79.80
2023-04-04T05:11:47.833Z,79.64
2023-04-04T05:16:50.729Z,79.89
2023-04-04T05:21:54.291Z,79.74
2023-04-04T05:26:57.135Z,79.45
2023-04-04T05:32:00.003Z,79.29
2023-04-04T05:37:03.360Z,79.34
2023-04-04T05:42:06.389Z,79.06
2023-04-04T05:47:09.250Z,78.98
2023-04-04T05:52:12.447Z,78.36
2023-04-04T05:57:15.324Z,77.99
2023-04-04T06:02:18.755Z,77.41
2023-04-04T06:07:21.866Z,77.03
2023-04-04T06:12:24.862Z,76.69
2023-04-04T06:17:27.811Z,75.97
2023-04-04T06:22:32.076Z,75.65
2023-04-04T06:27:34.962Z,74.96
2023-04-04T06:32:40.114Z,74.86
2023-04-04T06:37:43.047Z,74.25
2023-04-04T06:42:58.488Z,73.76
2023-04-04T06:48:02.507Z,73.62
2023-04-04T06:53:06.717Z,72.45
2023-04-04T06:58:09.548Z,72.52
2023-04-04T07:03:32.370Z,72.18
2023-04-04T07:08:36.766Z,72.21
2023-04-04T07:13:41.024Z,70.74
2023-04-04T07:18:44.375Z,70.63
2023-04-04T07:23:47.277Z,70.59
2023-04-04T07:28:50.728Z,69.64
2023-04-04T07:33:57.118Z,69.25
2023-04-04T07:39:00.296Z,68.74
2023-04-04T07:44:03.119Z,66.59
2023-04-04T07:49:06.009Z,65.27
2023-04-04T07:54:09.010Z,64.27
2023-04-04T07:59:13.434Z,63.80
2023-04-04T08:04:16.516Z,60.80
2023-04-04T08:09:19.983Z,60.31
2023-04-04T08:14:22.854Z,58.68
2023-04-04T08:19:26.033Z,58.28
2023-04-04T08:24:28.940Z,57.35
2023-04-04T08:29:33.012Z,55.47
2023-04-04T08:34:36.504Z,53.10
2023-04-04T08:39:39.810Z,51.94
2023-04-04T08:44:42.668Z,51.43
2023-04-04T08:49:46.278Z,50.97
2023-04-04T08:54:50.301Z,52.30
2023-04-04T08:59:53.831Z,48.84
2023-04-04T09:05:05.526Z,48.66
2023-04-04T09:10:11.838Z,49.76
2023-04-04T09:15:14.929Z,50.55
2023-04-04T09:20:43.416Z,50.22
2023-04-04T09:26:03.929Z,49.86
2023-04-04T09:31:10.127Z,49.47
2023-04-04T09:36:13.367Z,49.32
2023-04-04T09:41:16.621Z,48.33
2023-04-04T09:46:40.937Z,47.84
2023-04-04T09:51:44.287Z,48.78
2023-04-04T09:56:48.916Z,49.21
2023-04-04T10:01:55.237Z,49.83
2023-04-04T10:06:59.696Z,48.33
2023-04-04T10:12:10.125Z,47.16
2023-04-04T10:17:15.759Z,46.59
2023-04-04T10:22:20.880Z,44.89
2023-04-04T10:27:23.765Z,44.14
2023-04-04T10:33:02.683Z,44.31
2023-04-04T10:38:06.981Z,44.61
2023-04-04T10:43:09.813Z,43.97
2023-04-04T10:48:12.798Z,42.11
2023-04-04T10:53:15.965Z,43.04
2023-04-04T10:58:18.949Z,43.38
2023-04-04T11:03:22.007Z,42.68
2023-04-04T11:08:27.914Z,41.09
2023-04-04T11:13:35.834Z,36.66
2023-04-04T11:18:41.824Z,37.50
2023-04-04T11:23:47.753Z,40.30
2023-04-04T11:28:51.371Z,41.20
2023-04-04T11:34:04.771Z,42.38
2023-04-04T11:39:15.739Z,43.52
2023-04-04T11:44:19.688Z,41.92
2023-04-04T11:49:30.299Z,42.56
2023-04-04T11:54:33.617Z,43.74
2023-04-04T11:59:40.744Z,45.07
2023-04-04T12:04:47.355Z,46.08
2023-04-04T12:09:50.815Z,47.10
2023-04-04T12:15:00.246Z,47.37
2023-04-04T12:20:13.179Z,45.42
2023-04-04T12:25:16.135Z,45.89
2023-04-04T12:30:19.635Z,45.28
2023-04-04T12:35:22.708Z,46.84
2023-04-04T12:40:31.839Z,49.24
2023-04-04T12:45:41.611Z,51.93
2023-04-04T12:50:56.880Z,53.42
2023-04-04T12:56:04.862Z,54.41
2023-04-04T13:01:08.310Z,53.92
2023-04-04T13:06:16.490Z,53.38
2023-04-04T13:11:56.221Z,52.88
2023-04-04T13:17:08.056Z,52.98
2023-04-04T13:22:11.405Z,52.93
2023-04-04T13:27:14.232Z,51.91
2023-04-04T13:32:17.135Z,51.71
2023-04-04T13:37:20.586Z,51.56
2023-04-04T13:42:27.142Z,51.84
2023-04-04T13:47:30.030Z,51.43
2023-04-04T13:52:32.889Z,51.22
2023-04-04T13:57:35.811Z,51.17
2023-04-04T14:02:39.019Z,49.77
2023-04-04T14:07:42.158Z,49.15
2023-04-04T14:12:45.069Z,48.88
2023-04-04T14:17:47.891Z,48.43
2023-04-04T14:22:50.730Z,47.87
2023-04-04T14:27:53.620Z,47.59
2023-04-04T14:32:56.837Z,47.49
2023-04-04T14:37:59.773Z,47.98
2023-04-04T14:43:02.646Z,47.93
2023-04-04T14:48:05.746Z,48.26
2023-04-04T14:53:09.800Z,48.64
2023-04-04T14:58:13.234Z,47.95
2023-04-04T15:03:16.563Z,47.47
2023-04-04T15:08:19.408Z,47.29
2023-04-04T15:13:22.223Z,47.09
2023-04-04T15:18:25.196Z,47.00
2023-04-04T15:23:28.069Z,47.13
2023-04-04T15:28:31.050Z,47.83
2023-04-04T15:33:33.885Z,48.02
2023-04-04T15:38:36.725Z,48.07
2023-04-04T15:43:39.560Z,48.34
2023-04-04T15:48:42.529Z,47.87
2023-04-04T15:53:45.598Z,47.79
2023-04-04T15:58:48.621Z,47.98
2023-04-04T16:03:51.616Z,48.45
2023-04-04T16:08:55.372Z,48.57
2023-04-04T16:13:58.233Z,48.45
2023-04-04T16:19:01.140Z,48.62
2023-04-04T16:24:05.193Z,48.31
2023-04-04T16:29:08.256Z,48.49
2023-04-04T16:34:11.274Z,48.76
2023-04-04T16:39:14.938Z,48.97
2023-04-04T16:44:17.816Z,49.05
2023-04-04T16:49:20.795Z,49.38
2023-04-04T16:54:23.732Z,49.88
2023-04-04T16:59:27.900Z,49.86
2023-04-04T17:04:31.305Z,49.95
2023-04-04T17:09:35.277Z,49.91
2023-04-04T17:14:38.990Z,50.00
2023-04-04T17:19:42.170Z,50.01
2023-04-04T17:24:45.315Z,50.02
2023-04-04T17:29:48.188Z,50.22
2023-04-04T17:34:51.318Z,50.18
2023-04-04T17:39:54.800Z,50.03
2023-04-04T17:44:57.724Z,49.46
2023-04-04T17:50:00.994Z,49.39
2023-04-04T17:55:04.764Z,49.84
2023-04-04T18:00:09.509Z,49.86
2023-04-04T18:05:12.953Z,49.86
2023-04-04T18:10:17.314Z,49.93
2023-04-04T18:15:20.714Z,49.90
2023-04-04T18:20:34.180Z,50.25
2023-04-04T18:25:37.988Z,50.53
2023-04-04T18:30:41.378Z,50.66
2023-04-04T18:35:46.390Z,50.76
2023-04-04T18:40:49.595Z,51.50
2023-04-04T18:45:53.628Z,52.06
2023-04-04T18:50:57.332Z,52.21
2023-04-04T18:56:00.586Z,52.49
2023-04-04T19:01:04.148Z,53.42
2023-04-04T19:06:07.736Z,55.20
2023-04-04T19:11:11.386Z,56.98
2023-04-04T19:16:14.695Z,57.78
2023-04-04T19:21:17.475Z,59.65
2023-04-04T19:26:21.455Z,59.90
2023-04-04T19:31:25.241Z,59.73
2023-04-04T19:36:28.269Z,60.38
2023-04-04T19:41:38.776Z,60.72
2023-04-04T19:46:41.724Z,60.90
2023-04-04T19:51:52.538Z,61.97
2023-04-04T19:57:07.424Z,62.97
2023-04-04T20:02:48.000Z,64.24
2023-04-04T20:07:50.951Z,65.09
2023-04-04T20:12:54.143Z,64.92
2023-04-04T20:17:57.080Z,65.45
2023-04-04T20:22:59.909Z,65.28
2023-04-04T20:28:03.224Z,64.67
2023-04-04T20:33:31.484Z,65.08
2023-04-04T20:38:36.457Z,64.88
2023-04-04T20:43:39.279Z,64.72
2023-04-04T20:48:42.249Z,65.08
2023-04-04T20:53:45.112Z,65.92
2023-04-04T20:58:48.044Z,66.18
2023-04-04T21:03:51.964Z,66.45
2023-04-04T21:08:55.040Z,67.17
2023-04-04T21:13:58.014Z,67.28
2023-04-04T21:19:01.641Z,67.59
2023-04-04T21:24:10.065Z,67.99
2023-04-04T21:29:25.747Z,67.76
2023-04-04T21:34:28.783Z,68.29
2023-04-04T21:39:32.087Z,67.58
2023-04-04T21:44:38.479Z,67.45
2023-04-04T21:49:41.429Z,67.31
2023-04-04T21:54:44.201Z,66.93
2023-04-04T21:59:47.176Z,67.28
2023-04-04T22:04:50.099Z,67.39
2023-04-04T22:09:55.051Z,67.72
2023-04-04T22:14:59.085Z,68.15
2023-04-04T22:20:08.626Z,67.95
2023-04-04T22:25:12.617Z,68.62
2023-04-04T22:30:15.572Z,68.43
2023-04-04T22:35:18.388Z,68.73
2023-04-04T22:40:21.538Z,68.92
2023-04-04T22:45:25.212Z,69.10
2023-04-04T22:50:28.076Z,69.67
2023-04-04T22:55:31.470Z,69.34
2023-04-04T23:00:34.912Z,69.29
2023-04-04T23:05:37.860Z,69.50
2023-04-04T23:10:41.173Z,69.60
2023-04-04T23:15:45.238Z,69.34
2023-04-04T23:20:48.113Z,69.92
2023-04-04T23:25:54.048Z,69.50
2023-04-04T23:30:57.049Z,69.73
2023-04-04T23:36:00.007Z,69.53
2023-04-04T23:41:03.024Z,69.82
2023-04-04T23:46:06.304Z,70.14
2023-04-04T23:51:11.058Z,69.92
2023-04-04T23:56:13.901Z,70.21
